createdAt,value
2019-05-12T00:00:50.540Z,56.34
2019-05-12T00:03:27.670Z,56.21
2019-05-12T00:05:59.661Z,57.05
2019-05-12T00:08:30.270Z,56.54
2019-05-12T00:11:00.978Z,56.33
2019-05-12T00:13:32.549Z,56.44
2019-05-12T00:16:03.325Z,57.33
2019-05-12T00:18:33.969Z,57.33
2019-05-12T00:21:04.571Z,57.45
2019-05-12T00:23:38.181Z,57.07
2019-05-12T00:26:09.042Z,57.33
2019-05-12T00:28:41.978Z,57.29
2019-05-12T00:31:12.575Z,57.96
2019-05-12T00:33:43.334Z,57.65
2019-05-12T00:36:13.926Z,57.39
2019-05-12T00:38:44.467Z,57.74
2019-05-12T00:41:18.142Z,57.62
2019-05-12T00:43:48.812Z,58.11
2019-05-12T00:46:21.358Z,59.31
2019-05-12T00:48:51.980Z,58.05
2019-05-12T00:51:22.631Z,57.91
2019-05-12T00:53:53.200Z,58.24
2019-05-12T00:56:28.463Z,57.67
2019-05-12T00:58:59.468Z,57.70
2019-05-12T01:01:30.025Z,56.97
2019-05-12T01:04:00.778Z,58.18
2019-05-12T01:06:31.330Z,57.56
2019-05-12T01:09:09.458Z,57.78
2019-05-12T01:11:45.165Z,57.67
2019-05-12T01:14:15.872Z,58.26
2019-05-12T01:16:48.564Z,57.67
2019-05-12T01:19:18.914Z,57.96
2019-05-12T01:21:49.969Z,58.60
2019-05-12T01:24:21.663Z,57.76
2019-05-12T01:26:58.328Z,58.21
2019-05-12T01:29:42.067Z,58.21
2019-05-12T01:32:38.082Z,57.52
2019-05-12T01:35:13.790Z,58.36
2019-05-12T01:37:50.434Z,58.40
2019-05-12T01:40:21.274Z,57.87
2019-05-12T01:42:51.902Z,57.96
2019-05-12T01:45:22.661Z,58.36
2019-05-12T01:47:53.301Z,58.73
2019-05-12T01:50:28.256Z,58.38
2019-05-12T01:52:59.261Z,58.47
2019-05-12T01:55:30.024Z,57.76
2019-05-12T01:58:00.623Z,57.52
2019-05-12T02:00:31.343Z,58.18
2019-05-12T02:03:01.984Z,58.54
2019-05-12T02:05:34.583Z,58.54
2019-05-12T02:08:06.930Z,58.51
2019-05-12T02:10:38.950Z,58.70
2019-05-12T02:13:10.909Z,58.32
2019-05-12T02:15:41.816Z,58.36
2019-05-12T02:18:12.481Z,59.23
2019-05-12T02:20:48.848Z,57.99
2019-05-12T02:23:19.538Z,57.94
2019-05-12T02:25:50.263Z,58.21
2019-05-12T02:28:20.897Z,58.19
2019-05-12T02:30:51.385Z,58.43
2019-05-12T02:33:30.941Z,58.24
2019-05-12T02:36:04.721Z,58.58
2019-05-12T02:38:34.920Z,58.37
2019-05-12T02:41:05.557Z,58.86
2019-05-12T02:43:39.413Z,59.29
2019-05-12T02:46:10.079Z,59.83
2019-05-12T02:48:40.733Z,60.05
2019-05-12T02:51:15.226Z,60.30
2019-05-12T02:53:46.882Z,60.35
2019-05-12T02:56:16.805Z,60.44
2019-05-12T02:58:48.361Z,59.89
2019-05-12T03:01:20.651Z,59.64
2019-05-12T03:03:55.535Z,59.76
2019-05-12T03:06:35.748Z,59.91
2019-05-12T03:09:07.316Z,59.80
2019-05-12T03:11:38.021Z,59.89
2019-05-12T03:14:10.606Z,60.58
2019-05-12T03:16:45.369Z,59.66
2019-05-12T03:19:25.789Z,59.34
2019-05-12T03:21:56.534Z,60.50
2019-05-12T03:24:28.132Z,60.84
2019-05-12T03:27:04.364Z,60.26
2019-05-12T03:29:34.637Z,59.64
2019-05-12T03:32:08.629Z,59.78
2019-05-12T03:34:39.178Z,59.58
2019-05-12T03:37:09.753Z,58.99
2019-05-12T03:39:40.505Z,58.95
2019-05-12T03:42:24.947Z,59.02
2019-05-12T03:44:54.844Z,59.34
2019-05-12T03:47:25.487Z,59.70
2019-05-12T03:49:56.052Z,59.44
2019-05-12T03:52:26.727Z,59.41
2019-05-12T03:54:57.418Z,59.05
2019-05-12T03:57:34.286Z,58.99
2019-05-12T04:00:05.200Z,59.81
2019-05-12T04:02:36.128Z,59.22
2019-05-12T04:05:15.467Z,59.41
2019-05-12T04:07:45.307Z,59.48
2019-05-12T04:10:16.881Z,59.34
2019-05-12T04:12:47.471Z,59.21
2019-05-12T04:15:18.052Z,58.79
2019-05-12T04:17:49.287Z,59.12
2019-05-12T04:20:25.128Z,60.08
2019-05-12T04:22:54.848Z,59.31
2019-05-12T04:25:25.482Z,59.81
2019-05-12T04:27:58.010Z,59.30
2019-05-12T04:30:28.609Z,59.52
2019-05-12T04:32:59.178Z,59.25
2019-05-12T04:35:29.855Z,59.68
2019-05-12T04:38:06.442Z,59.28
2019-05-12T04:40:37.166Z,59.51
2019-05-12T04:43:14.521Z,59.29
2019-05-12T04:45:45.529Z,59.71
2019-05-12T04:48:20.835Z,58.68
2019-05-12T04:50:48.593Z,59.49
2019-05-12T04:53:19.242Z,59.61
2019-05-12T04:56:06.228Z,59.94
2019-05-12T04:58:24.970Z,59.11
2019-05-12T05:00:55.294Z,59.50
2019-05-12T05:03:26.878Z,59.12
2019-05-12T05:05:57.511Z,59.50
2019-05-12T05:08:28.098Z,59.71
2019-05-12T05:10:58.749Z,59.81
2019-05-12T05:13:29.417Z,59.21
2019-05-12T05:16:00.169Z,60.10
2019-05-12T05:18:30.638Z,60.50
2019-05-12T05:21:06.858Z,59.82
2019-05-12T05:23:37.417Z,59.83
2019-05-12T05:26:20.955Z,59.22
2019-05-12T05:28:40.360Z,59.70
2019-05-12T05:31:11.123Z,58.92
2019-05-12T05:33:43.426Z,58.97
2019-05-12T05:36:19.555Z,59.71
2019-05-12T05:38:50.918Z,59.36
2019-05-12T05:41:18.953Z,59.11
2019-05-12T05:43:56.383Z,58.80
2019-05-12T05:46:23.944Z,59.22
2019-05-12T05:49:00.388Z,59.20
2019-05-12T05:51:33.254Z,59.34
2019-05-12T05:54:04.387Z,59.60
2019-05-12T05:56:42.228Z,58.58
2019-05-12T05:59:08.253Z,59.78
2019-05-12T06:01:47.186Z,59.47
2019-05-12T06:04:14.086Z,58.54
2019-05-12T06:06:50.496Z,58.45
2019-05-12T06:09:26.034Z,59.25
2019-05-12T06:11:59.121Z,58.79
2019-05-12T06:14:34.246Z,58.26
2019-05-12T06:17:06.533Z,58.44
2019-05-12T06:19:37.251Z,58.37
2019-05-12T06:22:08.958Z,57.71
2019-05-12T06:24:40.259Z,57.52
2019-05-12T06:27:16.182Z,57.96
2019-05-12T06:29:43.724Z,58.11
2019-05-12T06:32:15.627Z,58.47
2019-05-12T06:34:59.797Z,58.14
2019-05-12T06:37:25.822Z,58.35
2019-05-12T06:40:00.528Z,58.07
2019-05-12T06:42:29.783Z,57.64
2019-05-12T06:45:03.946Z,58.23
2019-05-12T06:47:39.388Z,57.11
2019-05-12T06:50:14.605Z,56.46
2019-05-12T06:52:49.025Z,56.18
2019-05-12T06:55:28.549Z,56.14
2019-05-12T06:58:01.315Z,55.19
2019-05-12T07:00:35.044Z,56.45
2019-05-12T07:03:07.141Z,56.29
2019-05-12T07:05:42.352Z,55.83
2019-05-12T07:08:11.003Z,56.28
2019-05-12T07:10:44.254Z,57.22
2019-05-12T07:13:22.734Z,56.91
2019-05-12T07:15:54.385Z,55.77
2019-05-12T07:18:32.823Z,55.62
2019-05-12T07:21:01.164Z,56.32
2019-05-12T07:23:33.701Z,56.01
2019-05-12T07:26:12.905Z,54.84
2019-05-12T07:28:40.449Z,56.42
2019-05-12T07:31:08.848Z,57.48
2019-05-12T07:33:41.876Z,55.88
2019-05-12T07:36:13.791Z,53.49
2019-05-12T07:38:45.576Z,54.23
2019-05-12T07:41:18.948Z,54.09
2019-05-12T07:43:50.611Z,54.18
2019-05-12T07:46:24.976Z,53.90
2019-05-12T07:49:00.313Z,52.44
2019-05-12T07:51:38.309Z,58.27
2019-05-12T07:54:04.119Z,53.90
2019-05-12T07:56:35.856Z,50.46
2019-05-12T07:59:08.671Z,50.83
2019-05-12T08:01:50.148Z,51.48
2019-05-12T08:04:15.597Z,51.16
2019-05-12T08:06:50.006Z,49.72
2019-05-12T08:09:24.058Z,47.76
2019-05-12T08:11:54.090Z,47.25
2019-05-12T08:14:29.370Z,46.48
2019-05-12T08:17:01.890Z,47.83
2019-05-12T08:19:33.754Z,46.81
2019-05-12T08:22:11.010Z,46.91
2019-05-12T08:24:43.643Z,47.95
2019-05-12T08:27:16.074Z,47.85
2019-05-12T08:29:52.450Z,47.73
2019-05-12T08:32:20.348Z,48.85
2019-05-12T08:34:51.071Z,47.42
2019-05-12T08:37:24.251Z,47.96
2019-05-12T08:40:03.480Z,48.70
2019-05-12T08:42:27.498Z,46.93
2019-05-12T08:44:58.144Z,44.83
2019-05-12T08:47:34.397Z,44.49
2019-05-12T08:50:04.596Z,45.18
2019-05-12T08:52:37.123Z,44.50
2019-05-12T08:55:08.494Z,45.22
2019-05-12T08:57:48.632Z,43.67
2019-05-12T09:00:14.608Z,44.04
2019-05-12T09:02:50.442Z,43.25
2019-05-12T09:05:17.607Z,43.37
2019-05-12T09:07:48.543Z,45.01
2019-05-12T09:10:19.261Z,43.99
2019-05-12T09:12:50.977Z,41.68
2019-05-12T09:15:23.398Z,42.46
2019-05-12T09:17:56.832Z,43.48
2019-05-12T09:20:26.514Z,43.80
2019-05-12T09:23:00.530Z,41.68
2019-05-12T09:25:29.476Z,42.07
2019-05-12T09:28:03.583Z,43.79
2019-05-12T09:30:39.955Z,44.27
2019-05-12T09:33:08.962Z,45.41
2019-05-12T09:35:43.818Z,47.18
2019-05-12T09:38:21.361Z,46.25
2019-05-12T09:40:46.255Z,44.93
2019-05-12T09:43:18.816Z,44.18
2019-05-12T09:45:54.009Z,43.75
2019-05-12T09:48:24.730Z,41.34
2019-05-12T09:51:00.327Z,42.77
2019-05-12T09:53:27.391Z,41.33
2019-05-12T09:55:58.630Z,41.41
2019-05-12T09:58:29.511Z,40.53
2019-05-12T10:01:09.431Z,40.00
2019-05-12T10:03:40.248Z,39.21
2019-05-12T10:06:14.706Z,39.51
2019-05-12T10:08:43.567Z,38.88
2019-05-12T10:11:16.444Z,38.84
2019-05-12T10:13:46.886Z,37.39
2019-05-12T10:16:17.380Z,39.86
2019-05-12T10:18:51.121Z,38.65
2019-05-12T10:21:20.400Z,37.69
2019-05-12T10:24:00.164Z,38.07
2019-05-12T10:26:25.404Z,39.00
2019-05-12T10:28:58.397Z,41.30
2019-05-12T10:31:29.723Z,38.82
2019-05-12T10:34:18.664Z,38.82
2019-05-12T10:36:53.490Z,38.36
2019-05-12T10:39:24.404Z,38.48
2019-05-12T10:41:55.300Z,39.08
2019-05-12T10:44:30.103Z,39.94
2019-05-12T10:47:00.902Z,39.84
2019-05-12T10:49:33.602Z,39.12
2019-05-12T10:52:08.652Z,39.82
2019-05-12T10:54:39.343Z,39.79
2019-05-12T10:57:10.023Z,39.68
2019-05-12T10:59:45.223Z,38.37
2019-05-12T11:02:20.435Z,37.89
2019-05-12T11:04:50.425Z,39.80
2019-05-12T11:07:22.995Z,43.29
2019-05-12T11:09:54.354Z,38.76
2019-05-12T11:12:29.112Z,38.04
2019-05-12T11:15:01.397Z,39.42
2019-05-12T11:17:40.284Z,38.96
2019-05-12T11:20:11.265Z,38.91
2019-05-12T11:22:43.814Z,39.21
2019-05-12T11:25:14.542Z,36.90
2019-05-12T11:27:45.243Z,37.89
2019-05-12T11:30:16.041Z,36.88
2019-05-12T11:32:48.724Z,37.36
2019-05-12T11:35:20.398Z,37.49
2019-05-12T11:37:53.607Z,39.36
2019-05-12T11:40:23.892Z,38.16
2019-05-12T11:43:01.007Z,36.88
2019-05-12T11:45:27.875Z,36.72
2019-05-12T11:48:05.166Z,38.08
2019-05-12T11:50:31.985Z,36.49
2019-05-12T11:53:04.191Z,37.42
2019-05-12T11:55:35.217Z,37.80
2019-05-12T11:58:11.206Z,36.96
2019-05-12T12:00:49.109Z,36.53
2019-05-12T12:03:20.704Z,34.90
2019-05-12T12:05:53.578Z,34.79
2019-05-12T12:08:26.484Z,34.93
2019-05-12T12:10:55.954Z,34.69
2019-05-12T12:13:29.931Z,34.90
2019-05-12T12:16:00.545Z,35.22
2019-05-12T12:18:31.260Z,35.87
2019-05-12T12:21:06.018Z,35.48
2019-05-12T12:23:34.344Z,36.51
2019-05-12T12:26:05.017Z,34.84
2019-05-12T12:28:35.666Z,36.36
2019-05-12T12:31:07.848Z,35.42
2019-05-12T12:33:40.717Z,34.28
2019-05-12T12:36:10.693Z,33.74
2019-05-12T12:38:41.257Z,35.03
2019-05-12T12:41:13.178Z,35.18
2019-05-12T12:43:43.917Z,34.12
2019-05-12T12:46:21.498Z,34.06
2019-05-12T12:48:54.273Z,34.94
2019-05-12T12:51:25.058Z,33.95
2019-05-12T12:53:55.635Z,34.12
2019-05-12T12:56:29.927Z,34.40
2019-05-12T12:59:01.932Z,35.79
2019-05-12T13:01:33.543Z,34.58
2019-05-12T13:04:06.629Z,35.12
2019-05-12T13:06:37.401Z,34.68
2019-05-12T13:09:21.981Z,36.22
2019-05-12T13:11:40.793Z,35.61
2019-05-12T13:14:13.592Z,36.05
2019-05-12T13:16:49.301Z,36.06
2019-05-12T13:19:23.806Z,35.46
2019-05-12T13:21:54.642Z,36.26
2019-05-12T13:24:25.373Z,36.32
2019-05-12T13:27:06.152Z,35.51
2019-05-12T13:29:39.628Z,37.29
2019-05-12T13:32:09.341Z,37.31
2019-05-12T13:34:40.229Z,37.29
2019-05-12T13:37:15.480Z,37.72
2019-05-12T13:39:55.316Z,38.39
2019-05-12T13:42:16.870Z,38.49
2019-05-12T13:44:49.465Z,38.24
2019-05-12T13:47:20.128Z,37.49
2019-05-12T13:49:54.435Z,37.93
2019-05-12T13:52:30.602Z,38.04
2019-05-12T13:55:05.703Z,37.81
2019-05-12T13:57:34.180Z,37.47
2019-05-12T14:00:10.662Z,37.52
2019-05-12T14:02:39.614Z,39.37
2019-05-12T14:05:15.207Z,38.72
2019-05-12T14:07:44.151Z,38.68
2019-05-12T14:10:14.902Z,38.48
2019-05-12T14:12:45.655Z,37.99
2019-05-12T14:15:16.291Z,36.61
2019-05-12T14:17:49.037Z,37.22
2019-05-12T14:20:23.937Z,35.96
2019-05-12T14:22:56.287Z,36.23
2019-05-12T14:25:32.145Z,35.10
2019-05-12T14:28:05.458Z,35.43
2019-05-12T14:30:33.652Z,36.30
2019-05-12T14:33:06.362Z,36.71
2019-05-12T14:35:41.183Z,36.47
2019-05-12T14:38:13.994Z,36.00
2019-05-12T14:40:44.051Z,36.23
2019-05-12T14:43:17.009Z,36.22
2019-05-12T14:45:54.107Z,37.04
2019-05-12T14:48:24.707Z,39.35
2019-05-12T14:50:55.769Z,38.13
2019-05-12T14:53:26.547Z,38.53
2019-05-12T14:55:57.329Z,39.04
2019-05-12T14:58:29.042Z,39.35
2019-05-12T15:00:59.697Z,39.94
2019-05-12T15:03:30.359Z,39.43
2019-05-12T15:06:00.883Z,39.09
2019-05-12T15:08:36.298Z,38.44
2019-05-12T15:11:05.919Z,39.15
2019-05-12T15:13:36.611Z,39.51
2019-05-12T15:16:08.279Z,39.93
2019-05-12T15:18:39.504Z,40.61
2019-05-12T15:21:13.729Z,39.55
2019-05-12T15:23:44.224Z,40.26
2019-05-12T15:26:19.763Z,39.77
2019-05-12T15:28:48.184Z,40.24
2019-05-12T15:31:19.887Z,40.49
2019-05-12T15:33:53.700Z,40.29
2019-05-12T15:36:27.474Z,40.59
2019-05-12T15:38:59.040Z,41.59
2019-05-12T15:41:29.717Z,41.61
2019-05-12T15:44:00.226Z,39.11
2019-05-12T15:46:33.030Z,38.58
2019-05-12T15:49:03.537Z,37.82
2019-05-12T15:51:38.559Z,38.37
2019-05-12T15:54:11.681Z,39.68
2019-05-12T15:56:38.860Z,39.84
2019-05-12T15:59:09.565Z,40.21
2019-05-12T16:01:40.146Z,39.95
2019-05-12T16:04:15.424Z,40.10
2019-05-12T16:06:53.800Z,40.33
2019-05-12T16:09:24.052Z,41.00
2019-05-12T16:11:54.774Z,40.84
2019-05-12T16:14:30.468Z,40.52
2019-05-12T16:17:05.845Z,40.59
2019-05-12T16:19:34.526Z,40.16
2019-05-12T16:22:06.237Z,41.87
2019-05-12T16:24:36.833Z,41.27
2019-05-12T16:27:07.508Z,41.28
2019-05-12T16:29:54.693Z,40.40
2019-05-12T16:32:27.369Z,41.32
2019-05-12T16:34:57.695Z,40.29
2019-05-12T16:37:31.110Z,38.34
2019-05-12T16:40:04.452Z,36.97
2019-05-12T16:42:40.752Z,36.90
2019-05-12T16:45:10.715Z,37.17
2019-05-12T16:47:44.698Z,36.99
2019-05-12T16:50:24.303Z,37.06
2019-05-12T16:52:50.231Z,39.11
2019-05-12T16:55:24.182Z,37.32
2019-05-12T16:57:56.180Z,36.56
2019-05-12T17:00:27.100Z,36.09
2019-05-12T17:02:58.154Z,36.06
2019-05-12T17:05:30.204Z,36.23
2019-05-12T17:08:01.213Z,36.37
2019-05-12T17:10:33.759Z,35.80
2019-05-12T17:13:07.330Z,35.39
2019-05-12T17:15:36.993Z,35.29
2019-05-12T17:18:07.692Z,35.12
2019-05-12T17:20:40.865Z,35.29
2019-05-12T17:23:13.816Z,35.04
2019-05-12T17:25:45.865Z,34.95
2019-05-12T17:28:16.437Z,35.93
2019-05-12T17:30:54.634Z,35.80
2019-05-12T17:33:27.634Z,35.10
2019-05-12T17:36:05.032Z,35.91
2019-05-12T17:38:30.370Z,36.21
2019-05-12T17:41:03.776Z,37.00
2019-05-12T17:43:39.737Z,37.79
2019-05-12T17:46:12.406Z,40.24
2019-05-12T17:48:42.801Z,41.04
2019-05-12T17:51:14.023Z,42.23
2019-05-12T17:53:44.863Z,42.58
2019-05-12T17:56:15.491Z,41.26
2019-05-12T17:58:47.573Z,41.61
2019-05-12T18:01:23.131Z,41.92
2019-05-12T18:03:50.933Z,41.28
2019-05-12T18:06:26.710Z,41.67
2019-05-12T18:08:57.572Z,41.75
2019-05-12T18:11:28.314Z,42.27
2019-05-12T18:14:02.853Z,41.24
2019-05-12T18:16:33.903Z,41.08
2019-05-12T18:19:08.829Z,41.03
2019-05-12T18:21:37.064Z,41.19
2019-05-12T18:24:17.828Z,41.66
2019-05-12T18:26:56.557Z,40.77
2019-05-12T18:29:23.548Z,40.83
2019-05-12T18:31:56.133Z,40.55
2019-05-12T18:34:26.815Z,41.43
2019-05-12T18:37:00.090Z,41.90
2019-05-12T18:39:30.883Z,41.71
2019-05-12T18:42:03.731Z,41.21
2019-05-12T18:44:34.517Z,42.09
2019-05-12T18:47:05.492Z,42.50
2019-05-12T18:49:50.143Z,41.88
2019-05-12T18:52:29.119Z,41.70
2019-05-12T18:54:57.165Z,41.98
2019-05-12T18:57:38.775Z,41.99
2019-05-12T19:00:13.363Z,41.21
2019-05-12T19:02:51.133Z,42.46
2019-05-12T19:05:30.638Z,41.74
2019-05-12T19:08:00.071Z,41.53
2019-05-12T19:10:44.296Z,41.71
2019-05-12T19:13:12.569Z,43.03
2019-05-12T19:15:44.174Z,42.40
2019-05-12T19:18:18.009Z,42.00
2019-05-12T19:20:48.207Z,41.35
2019-05-12T19:23:19.085Z,41.49
2019-05-12T19:25:50.295Z,41.89
2019-05-12T19:28:23.665Z,41.25
2019-05-12T19:31:06.174Z,41.43
2019-05-12T19:33:43.911Z,41.77
2019-05-12T19:36:15.656Z,41.46
2019-05-12T19:38:46.300Z,41.26
2019-05-12T19:41:16.964Z,41.86
2019-05-12T19:43:53.380Z,41.47
2019-05-12T19:46:25.321Z,41.58
2019-05-12T19:48:55.956Z,41.93
2019-05-12T19:51:28.287Z,42.22
2019-05-12T19:53:59.205Z,42.50
2019-05-12T19:56:34.463Z,42.42
2019-05-12T19:59:04.226Z,42.29
2019-05-12T20:01:36.687Z,42.45
2019-05-12T20:04:07.822Z,42.98
2019-05-12T20:06:40.538Z,43.05
2019-05-12T20:09:14.599Z,43.17
2019-05-12T20:11:56.014Z,43.37
2019-05-12T20:14:36.017Z,43.45
2019-05-12T20:17:06.759Z,43.98
2019-05-12T20:19:37.461Z,43.91
2019-05-12T20:22:08.191Z,44.24
2019-05-12T20:24:38.798Z,44.23
2019-05-12T20:27:10.581Z,44.25
2019-05-12T20:29:43.459Z,44.65
2019-05-12T20:32:18.650Z,44.97
2019-05-12T20:34:55.500Z,44.86
2019-05-12T20:37:33.727Z,45.01
2019-05-12T20:40:06.597Z,45.23
2019-05-12T20:42:44.209Z,46.11
2019-05-12T20:45:14.105Z,45.82
2019-05-12T20:47:47.618Z,45.87
2019-05-12T20:50:24.170Z,45.30
2019-05-12T20:52:58.515Z,46.17
2019-05-12T20:55:24.290Z,46.24
2019-05-12T20:57:59.423Z,46.17
2019-05-12T21:00:33.519Z,46.33
2019-05-12T21:03:04.405Z,46.46
2019-05-12T21:05:36.652Z,46.61
2019-05-12T21:08:11.852Z,46.65
2019-05-12T21:10:43.766Z,46.95
2019-05-12T21:13:20.229Z,47.72
2019-05-12T21:15:48.014Z,47.74
2019-05-12T21:18:18.601Z,48.01
2019-05-12T21:20:52.287Z,48.16
2019-05-12T21:23:23.905Z,48.39
2019-05-12T21:25:58.064Z,48.15
2019-05-12T21:28:28.260Z,48.63
2019-05-12T21:30:59.026Z,48.65
2019-05-12T21:33:31.443Z,48.61
2019-05-12T21:36:03.641Z,49.33
2019-05-12T21:38:38.318Z,48.85
2019-05-12T21:41:10.158Z,49.20
2019-05-12T21:43:40.701Z,49.18
2019-05-12T21:46:13.180Z,49.26
2019-05-12T21:48:44.728Z,49.17
2019-05-12T21:51:19.796Z,49.75
2019-05-12T21:53:50.493Z,49.23
2019-05-12T21:56:19.984Z,49.33
2019-05-12T21:58:53.700Z,50.06
2019-05-12T22:01:23.870Z,49.50
2019-05-12T22:04:01.940Z,50.54
2019-05-12T22:06:27.016Z,50.77
2019-05-12T22:09:01.162Z,51.02
2019-05-12T22:11:34.616Z,50.54
2019-05-12T22:14:05.614Z,50.68
2019-05-12T22:16:44.276Z,50.86
2019-05-12T22:19:13.208Z,50.83
2019-05-12T22:21:49.214Z,51.79
2019-05-12T22:24:16.292Z,51.02
2019-05-12T22:26:47.997Z,50.85
2019-05-12T22:29:21.184Z,52.04
2019-05-12T22:31:51.001Z,50.46
2019-05-12T22:34:27.635Z,51.08
2019-05-12T22:36:57.898Z,51.23
2019-05-12T22:39:26.431Z,51.21
2019-05-12T22:41:57.040Z,51.12
2019-05-12T22:44:27.523Z,51.50
2019-05-12T22:46:58.176Z,51.39
2019-05-12T22:49:28.776Z,50.47
2019-05-12T22:52:07.416Z,50.95
2019-05-12T22:54:40.600Z,51.08
2019-05-12T22:57:10.516Z,50.95
2019-05-12T22:59:42.686Z,51.08
2019-05-12T23:02:18.035Z,51.48
2019-05-12T23:04:46.090Z,51.32
2019-05-12T23:07:19.213Z,52.11
2019-05-12T23:09:49.012Z,51.47
2019-05-12T23:12:20.257Z,51.88
2019-05-12T23:14:56.444Z,52.42
2019-05-12T23:17:24.636Z,52.15
2019-05-12T23:19:59.886Z,51.92
2019-05-12T23:22:35.092Z,52.54
2019-05-12T23:25:03.966Z,54.09
2019-05-12T23:27:34.762Z,54.12
2019-05-12T23:30:10.986Z,53.44
2019-05-12T23:32:45.300Z,54.49
2019-05-12T23:35:10.416Z,54.87
2019-05-12T23:37:44.147Z,55.23
2019-05-12T23:40:16.533Z,55.63
2019-05-12T23:42:46.939Z,56.44
2019-05-12T23:45:17.577Z,54.89
2019-05-12T23:47:48.082Z,55.78
2019-05-12T23:50:18.753Z,55.76
2019-05-12T23:52:49.523Z,57.15
2019-05-12T23:55:20.086Z,57.09
2019-05-12T23:57:50.761Z,56.52
